Flight Track Log - Related Links

Times and Time Zones

All times are in EDT time to prevent confusion due to time zone crossing. See the UPS1121 flight status page for this flight to view local times or setup timezone preferences in your user account.


Time Position Orientation Groundspeed Altitude Reporting Facility
EDT Latitude Longitude Course Direction KTS MPH feet Rate Location/Type
Tue 08:36:40 PM 42.7339 -73.8053 127° Southeast 173 199 1,400  Level Boston Center
Tue 08:38:52 PM 42.6522 -73.6567 127° Southeast 341 392 6,800 2,844 Climbing Boston Center
Tue 08:39:52 PM 42.5844 -73.5681 136° Southeast 317 365 10,500 2,083 Climbing Boston Center
Tue 08:40:53 PM 42.5228 -73.4881 136° Southeast 331 381 11,000 259 Climbing Boston Center
Tue 08:41:48 PM 42.4444 -73.3825 135° Southeast 386 444 11,000  Level Boston Center
Tue 08:42:36 PM 42.3889 -73.3031 133° Southeast 378 435 11,000  Level Boston Center
Tue 08:43:38 PM 42.3356 -73.1872 122° Southeast 373 429 11,000  Level Boston Center
Tue 08:44:40 PM 42.3072 -73.0436 105° East 373 429 11,000 -400 Level Boston Center
Tue 08:45:38 PM 42.3056 -72.9117 91° East 338 389 10,200 -1,062 Descending Boston Center
Tue 08:46:33 PM 42.2894 -72.8189 103° East 299 344 9,000 -1,397 Descending Boston Center
Tue 08:47:34 PM 42.2375 -72.7178 125° Southeast 289 333 7,500 -1,587 Descending Boston Center
Tue 08:48:34 PM 42.1897 -72.6306 126° Southeast 291 335 5,800 -1,884 Descending Boston Center
Tue 08:49:35 PM 42.1356 -72.5550 134° Southeast 266 306 3,700 -1,461 Descending Boston Center
Tue 08:50:29 PM 42.0878 -72.5100 145° Southeast 227 261 3,000 -661 Descending Boston Center
Tue 08:51:24 PM 42.0481 -72.5408 210° Southwest 195 224 2,500 -424 Descending Boston Center
Tue 08:51:54 PM 42.0314 -72.5658 228° Southwest 184 212 2,400 -492 Descending Boston Center
Tue 08:52:25 PM 42.0106 -72.5911 222° Southwest 157 181 2,000 -686 Descending Boston Center
Tue 08:53:04 PM 42.0000 -72.6078 230° Southwest 172 198 1,600 -727 Descending Boston Center
Tue 08:54:04 PM 41.9731 -72.6439 225° Southwest 143 165 800 -645 Descending Boston Center
Tue 08:55:05 PM 41.9564 -72.6689 228° Southwest 130 150 300 -492 Descending Boston Center

Login

Don't have an account? Register now (free) for customized features, flight alerts, and more!